Time,TemperatureF,DewpointF,PressureIn,WindDirection,WindDirectionDegrees,WindSpeedMPH,WindSpeedGustMPH,Humidity,HourlyPrecipIn,Conditions,Clouds,dailyrainin,SoftwareType,DateUTC
2013-04-10 00:00:00,47.4,42.2,29.94,WNW,287,0.0,2.0,82,0.00,,BKN100,0.04,VWS V13.01,2013-04-10 04:00:00,
2013-04-10 00:05:00,47.2,42.3,29.93,WNW,287,0.0,1.0,83,0.00,,BKN100,0.00,VWS V13.01,2013-04-10 04:05:00,
2013-04-10 00:10:00,47.1,42.2,29.93,WNW,287,0.0,1.0,83,0.00,,BKN100,0.00,VWS V13.01,2013-04-10 04:10:00,
2013-04-10 00:15:00,47.0,42.1,29.92,WNW,287,0.0,2.0,83,0.00,,BKN100,0.00,VWS V13.01,2013-04-10 04:15:00,
2013-04-10 00:20:00,46.9,42.3,29.91,WNW,287,0.0,2.0,84,0.00,,BKN100,0.00,VWS V13.01,2013-04-10 04:20:00,
2013-04-10 00:25:00,46.9,42.3,29.91,WNW,287,0.0,2.0,84,0.00,,BKN100,0.00,VWS V13.01,2013-04-10 04:25:00,
2013-04-10 00:31:00,46.9,42.3,29.91,WNW,287,0.0,2.0,84,0.00,,BKN100,0.00,VWS V13.01,2013-04-10 04:31:00,
2013-04-10 00:36:00,46.9,42.3,29.92,WNW,287,0.0,1.0,84,0.00,,BKN100,0.00,VWS V13.01,2013-04-10 04:36:00,
2013-04-10 00:41:00,46.9,42.3,29.92,South,187,0.0,3.0,84,0.00,,BKN100,0.00,VWS V13.01,2013-04-10 04:41:00,
2013-04-10 00:46:00,46.9,42.3,29.93,South,187,0.0,3.0,84,0.00,,FEW120,0.00,VWS V13.01,2013-04-10 04:46:00,
2013-04-10 00:51:00,46.9,42.6,29.93,SSW,213,1.0,3.0,85,0.00,,FEW120,0.00,VWS V13.01,2013-04-10 04:51:00,
2013-04-10 00:56:00,47.0,42.4,29.92,SSW,211,0.0,4.0,84,0.00,,FEW120,0.00,VWS V13.01,2013-04-10 04:56:00,
2013-04-10 01:01:00,47.0,42.4,29.93,SSW,211,0.0,4.0,84,0.00,,FEW120,0.00,VWS V13.01,2013-04-10 05:01:00,
2013-04-10 01:06:00,47.0,42.4,29.93,SSW,211,0.0,0.0,84,0.00,,FEW120,0.00,VWS V13.01,2013-04-10 05:06:00,
2013-04-10 01:11:00,47.1,42.5,29.93,SSE,148,0.0,4.0,84,0.00,,FEW120,0.00,VWS V13.01,2013-04-10 05:11:00,
2013-04-10 01:17:00,47.2,42.6,29.94,South,191,0.0,4.0,84,0.00,,FEW120,0.00,VWS V13.01,2013-04-10 05:17:00,
2013-04-10 01:22:00,47.2,42.6,29.93,SSW,203,0.0,4.0,84,0.00,,FEW120,0.00,VWS V13.01,2013-04-10 05:22:00,
2013-04-10 01:27:00,47.2,42.3,29.93,SSW,203,0.0,4.0,83,0.00,,FEW120,0.00,VWS V13.01,2013-04-10 05:27:00,
2013-04-10 01:32:00,47.2,42.3,29.94,SSW,203,0.0,0.0,83,0.00,,FEW120,0.00,VWS V13.01,2013-04-10 05:32:00,
2013-04-10 01:37:00,47.2,42.3,29.94,SSW,203,0.0,0.0,83,0.00,,FEW120,0.00,VWS V13.01,2013-04-10 05:37:00,
2013-04-10 01:42:00,47.2,42.0,29.94,SSW,203,0.0,0.0,82,0.00,,FEW120,0.00,VWS V13.01,2013-04-10 05:42:00,
2013-04-10 01:47:00,47.2,42.3,29.94,SSW,203,0.0,0.0,83,0.00,,OVC110,0.00,VWS V13.01,2013-04-10 05:47:00,
2013-04-10 01:52:00,47.2,42.0,29.94,SSW,203,0.0,0.0,82,0.00,,OVC110,0.00,VWS V13.01,2013-04-10 05:52:00,
2013-04-10 01:58:00,47.2,42.0,29.93,SSW,203,0.0,0.0,82,0.00,,OVC110,0.00,VWS V13.01,2013-04-10 05:58:00,
2013-04-10 02:03:00,47.2,42.3,29.94,SSW,203,0.0,0.0,83,0.00,,OVC110,0.00,VWS V13.01,2013-04-10 06:03:00,
2013-04-10 02:08:00,47.2,42.3,29.95,SSW,203,0.0,0.0,83,0.00,,OVC110,0.00,VWS V13.01,2013-04-10 06:08:00,
2013-04-10 02:13:00,47.2,42.3,29.95,SSW,203,0.0,0.0,83,0.00,,OVC110,0.00,VWS V13.01,2013-04-10 06:13:00,
2013-04-10 02:18:00,47.2,42.3,29.95,SSW,203,0.0,0.0,83,0.00,,OVC110,0.00,VWS V13.01,2013-04-10 06:18:00,
2013-04-10 02:23:00,47.3,42.4,29.94,SSW,203,0.0,0.0,83,0.00,,OVC110,0.00,VWS V13.01,2013-04-10 06:23:00,
2013-04-10 02:28:00,47.2,42.3,29.94,SSW,203,0.0,0.0,83,0.00,,OVC110,0.00,VWS V13.01,2013-04-10 06:28:00,
2013-04-10 02:33:00,47.2,42.3,29.95,SSW,203,0.0,0.0,83,0.00,,OVC110,0.00,VWS V13.01,2013-04-10 06:33:00,
2013-04-10 02:38:00,47.2,42.6,29.95,SSW,203,0.0,0.0,84,0.00,,OVC110,0.00,VWS V13.01,2013-04-10 06:38:00,
2013-04-10 02:43:00,47.2,42.9,29.96,SSW,203,0.0,0.0,85,0.00,,OVC110,0.00,VWS V13.01,2013-04-10 06:43:00,
2013-04-10 02:48:00,47.2,43.2,29.97,SSW,203,0.0,0.0,86,0.00,,OVC095,0.00,VWS V13.01,2013-04-10 06:48:00,
2013-04-10 02:54:00,47.2,43.2,29.96,SSW,203,0.0,1.0,86,0.00,,OVC095,0.00,VWS V13.01,2013-04-10 06:54:00,
2013-04-10 02:59:00,47.0,43.3,29.96,SSW,203,0.0,1.0,87,0.00,,OVC095,0.00,VWS V13.01,2013-04-10 06:59:00,
2013-04-10 03:04:00,47.0,43.6,29.96,SSW,203,0.0,0.0,88,0.01,,OVC095,0.01,VWS V13.01,2013-04-10 07:04:00,
2013-04-10 03:09:00,46.9,43.5,29.97,SSW,203,0.0,0.0,88,0.01,,OVC095,0.01,VWS V13.01,2013-04-10 07:09:00,
2013-04-10 03:14:00,46.9,43.8,29.99,WNW,292,0.0,1.0,89,0.01,,OVC095,0.01,VWS V13.01,2013-04-10 07:14:00,
2013-04-10 03:19:00,46.8,44.0,29.98,WNW,292,0.0,1.0,90,0.02,,OVC095,0.02,VWS V13.01,2013-04-10 07:19:00,
2013-04-10 03:24:00,46.7,43.9,29.98,WNW,292,0.0,1.0,90,0.02,,OVC095,0.03,VWS V13.01,2013-04-10 07:24:00,
2013-04-10 03:29:00,46.5,44.0,29.97,WNW,292,0.0,1.0,91,0.04,,OVC095,0.04,VWS V13.01,2013-04-10 07:29:00,
2013-04-10 03:34:00,46.3,44.1,29.97,WNW,292,0.0,0.0,92,0.05,,OVC095,0.05,VWS V13.01,2013-04-10 07:34:00,
2013-04-10 03:39:00,46.1,43.9,29.95,WNW,292,0.0,0.0,92,0.05,,OVC095,0.05,VWS V13.01,2013-04-10 07:39:00,
2013-04-10 03:44:00,46.0,44.1,29.95,WNW,292,0.0,0.0,93,0.06,,OVC095,0.06,VWS V13.01,2013-04-10 07:44:00,
2013-04-10 03:49:00,45.9,44.0,29.93,WNW,292,1.0,2.0,93,0.06,,-RA,0.06,VWS V13.01,2013-04-10 07:49:00,
2013-04-10 03:54:00,45.8,44.2,29.91,WNW,292,0.0,2.0,94,0.06,,-RA,0.06,VWS V13.01,2013-04-10 07:54:00,
2013-04-10 03:59:00,45.6,44.0,29.91,WNW,292,0.0,2.0,94,0.06,,-RA,0.06,VWS V13.01,2013-04-10 07:59:00,
2013-04-10 04:04:00,45.6,44.0,29.91,WNW,292,0.0,0.0,94,0.06,,-RA,0.06,VWS V13.01,2013-04-10 08:04:00,
2013-04-10 04:10:00,45.5,44.2,29.91,WNW,292,0.0,1.0,95,0.06,,-RA,0.06,VWS V13.01,2013-04-10 08:10:00,
2013-04-10 04:15:00,45.5,44.2,29.91,WNW,292,0.0,1.0,95,0.06,,-RA,0.06,VWS V13.01,2013-04-10 08:15:00,
2013-04-10 04:20:00,45.4,44.0,29.91,WNW,292,0.0,1.0,95,0.06,,-RA,0.06,VWS V13.01,2013-04-10 08:20:00,
2013-04-10 04:25:00,45.4,44.0,29.91,WNW,292,0.0,1.0,95,0.06,,-RA,0.06,VWS V13.01,2013-04-10 08:25:00,
2013-04-10 04:30:00,45.4,44.0,29.91,WNW,292,0.0,1.0,95,0.06,,-RA,0.06,VWS V13.01,2013-04-10 08:30:00,
2013-04-10 04:35:00,45.5,44.2,29.92,WNW,292,0.0,0.0,95,0.02,,-RA,0.06,VWS V13.01,2013-04-10 08:35:00,
2013-04-10 04:40:00,45.5,44.2,29.91,WNW,292,0.0,0.0,95,0.02,,-RA,0.06,VWS V13.01,2013-04-10 08:40:00,
2013-04-10 04:45:00,45.5,44.4,29.91,WNW,292,0.0,0.0,96,0.02,,-RA,0.06,VWS V13.01,2013-04-10 08:45:00,
2013-04-10 04:50:00,45.5,44.4,29.90,WNW,292,0.0,0.0,96,0.02,,-RA,0.06,VWS V13.01,2013-04-10 08:50:00,
2013-04-10 04:55:00,45.6,44.5,29.89,WNW,292,0.0,0.0,96,0.02,,-RA,0.06,VWS V13.01,2013-04-10 08:55:00,
2013-04-10 05:00:00,45.5,44.4,29.88,WNW,292,0.0,1.0,96,0.02,,-RA,0.06,VWS V13.01,2013-04-10 09:00:00,
2013-04-10 05:05:00,45.5,44.4,29.88,WNW,292,0.0,0.0,96,0.00,,-RA,0.06,VWS V13.01,2013-04-10 09:05:00,
2013-04-10 05:10:00,45.5,44.4,29.89,WNW,292,0.0,0.0,96,0.00,,-RA,0.06,VWS V13.01,2013-04-10 09:10:00,
2013-04-10 05:15:00,45.5,44.4,29.89,WNW,292,0.0,0.0,96,0.00,,-RA,0.06,VWS V13.01,2013-04-10 09:15:00,
2013-04-10 05:21:00,45.5,44.4,29.89,WNW,292,0.0,0.0,96,0.00,,-RA,0.06,VWS V13.01,2013-04-10 09:21:00,
2013-04-10 05:26:00,45.6,44.5,29.89,WNW,292,0.0,0.0,96,0.00,,-RA,0.06,VWS V13.01,2013-04-10 09:26:00,
2013-04-10 05:31:00,45.6,44.5,29.89,WNW,292,0.0,0.0,96,0.00,,-RA,0.06,VWS V13.01,2013-04-10 09:31:00,
2013-04-10 05:37:00,45.6,44.5,29.89,WNW,292,0.0,0.0,96,0.00,,-RA,0.06,VWS V13.01,2013-04-10 09:37:00,
2013-04-10 05:42:00,45.6,44.5,29.89,WNW,292,0.0,0.0,96,0.00,,-RA,0.06,VWS V13.01,2013-04-10 09:42:00,
2013-04-10 05:47:00,45.6,44.5,29.89,WNW,292,0.0,0.0,96,0.00,,-RA,0.06,VWS V13.01,2013-04-10 09:47:00,
2013-04-10 05:52:00,45.6,44.5,29.88,WNW,292,0.0,0.0,96,0.00,,-RA,0.06,VWS V13.01,2013-04-10 09:52:00,
2013-04-10 05:57:00,45.6,44.5,29.89,WNW,292,0.0,0.0,96,0.00,,-RA,0.06,VWS V13.01,2013-04-10 09:57:00,
2013-04-10 06:02:00,45.6,44.5,29.89,WNW,292,0.0,0.0,96,0.00,,OVC060,0.06,VWS V13.01,2013-04-10 10:02:00,
2013-04-10 06:07:00,45.6,44.5,29.88,WNW,292,0.0,0.0,96,0.00,,OVC060,0.06,VWS V13.01,2013-04-10 10:07:00,
2013-04-10 06:12:00,45.6,44.5,29.89,WNW,292,0.0,0.0,96,0.00,,OVC060,0.06,VWS V13.01,2013-04-10 10:12:00,
2013-04-10 06:18:00,45.7,44.9,29.90,WNW,292,0.0,1.0,97,0.00,,OVC060,0.06,VWS V13.01,2013-04-10 10:18:00,
2013-04-10 06:23:00,45.7,44.6,29.90,WNW,292,0.0,1.0,96,0.00,,OVC060,0.06,VWS V13.01,2013-04-10 10:23:00,
2013-04-10 06:28:00,45.7,44.9,29.90,WNW,292,0.0,1.0,97,0.00,,OVC060,0.06,VWS V13.01,2013-04-10 10:28:00,
2013-04-10 06:33:00,45.7,44.6,29.90,WNW,292,0.0,0.0,96,0.00,,-RA,0.06,VWS V13.01,2013-04-10 10:33:00,
2013-04-10 06:38:00,45.8,44.7,29.90,WNW,292,0.0,0.0,96,0.00,,-RA,0.06,VWS V13.01,2013-04-10 10:38:00,
2013-04-10 06:43:00,45.8,45.0,29.90,WNW,292,0.0,0.0,97,0.00,,-RA,0.06,VWS V13.01,2013-04-10 10:43:00,
2013-04-10 06:48:00,45.8,45.0,29.90,WNW,292,0.0,0.0,97,0.00,,OVC065,0.06,VWS V13.01,2013-04-10 10:48:00,
2013-04-10 06:53:00,45.9,45.1,29.91,WNW,292,0.0,1.0,97,0.00,,OVC065,0.06,VWS V13.01,2013-04-10 10:53:00,
2013-04-10 06:58:00,45.9,45.1,29.91,WNW,292,0.0,1.0,97,0.00,,OVC065,0.06,VWS V13.01,2013-04-10 10:58:00,
2013-04-10 07:03:00,45.9,44.8,29.92,WNW,292,0.0,0.0,96,0.00,,OVC065,0.06,VWS V13.01,2013-04-10 11:03:00,
2013-04-10 07:08:00,45.9,44.8,29.92,WNW,292,0.0,0.0,96,0.00,,OVC065,0.06,VWS V13.01,2013-04-10 11:08:00,
2013-04-10 07:13:00,45.9,44.8,29.92,WNW,292,0.0,0.0,96,0.00,,OVC065,0.06,VWS V13.01,2013-04-10 11:13:00,
2013-04-10 07:18:00,46.0,44.9,29.91,WNW,292,0.0,0.0,96,0.00,,OVC065,0.06,VWS V13.01,2013-04-10 11:18:00,
2013-04-10 07:23:00,46.0,45.2,29.92,WNW,292,0.0,0.0,97,0.00,,OVC065,0.06,VWS V13.01,2013-04-10 11:23:00,
2013-04-10 07:28:00,46.1,45.0,29.91,WNW,292,0.0,0.0,96,0.00,,OVC065,0.06,VWS V13.01,2013-04-10 11:28:00,
2013-04-10 07:33:00,46.3,45.5,29.92,WNW,292,0.0,1.0,97,0.00,,OVC065,0.06,VWS V13.01,2013-04-10 11:33:00,
2013-04-10 07:38:00,46.4,45.6,29.91,WNW,292,0.0,1.0,97,0.00,,OVC065,0.06,VWS V13.01,2013-04-10 11:38:00,
2013-04-10 07:43:00,46.5,45.7,29.92,WNW,292,0.0,1.0,97,0.00,,OVC065,0.06,VWS V13.01,2013-04-10 11:43:00,
2013-04-10 07:48:00,46.7,45.6,29.91,WNW,292,0.0,1.0,96,0.00,,,0.06,VWS V13.01,2013-04-10 11:48:00,
2013-04-10 07:53:00,46.7,45.6,29.91,WNW,292,0.0,1.0,96,0.00,,,0.06,VWS V13.01,2013-04-10 11:53:00,
2013-04-10 07:58:00,46.9,45.8,29.91,WNW,292,0.0,1.0,96,0.00,,,0.06,VWS V13.01,2013-04-10 11:58:00,
2013-04-10 08:04:00,47.0,45.9,29.91,WNW,292,0.0,0.0,96,0.00,,,0.06,VWS V13.01,2013-04-10 12:04:00,
2013-04-10 08:09:00,47.2,46.1,29.91,WNW,292,0.0,0.0,96,0.00,,,0.06,VWS V13.01,2013-04-10 12:09:00,
2013-04-10 08:14:00,47.3,46.2,29.91,WNW,292,0.0,0.0,96,0.00,,,0.06,VWS V13.01,2013-04-10 12:14:00,
2013-04-10 08:19:00,47.5,46.1,29.92,WNW,292,0.0,0.0,95,0.00,,,0.06,VWS V13.01,2013-04-10 12:19:00,
2013-04-10 08:24:00,47.6,46.2,29.92,WNW,292,0.0,1.0,95,0.00,,,0.06,VWS V13.01,2013-04-10 12:24:00,
2013-04-10 08:29:00,47.7,45.8,29.92,WNW,292,0.0,1.0,93,0.00,,,0.06,VWS V13.01,2013-04-10 12:29:00,
2013-04-10 08:34:00,47.8,45.9,29.92,WNW,292,0.0,0.0,93,0.00,,,0.06,VWS V13.01,2013-04-10 12:34:00,
2013-04-10 08:39:00,48.0,46.4,29.92,WNW,292,0.0,1.0,94,0.00,,,0.06,VWS V13.01,2013-04-10 12:39:00,
2013-04-10 08:44:00,48.2,46.3,29.92,WNW,292,0.0,1.0,93,0.00,,,0.06,VWS V13.01,2013-04-10 12:44:00,
2013-04-10 08:49:00,48.4,46.2,29.92,WNW,292,0.0,1.0,92,0.00,,,0.06,VWS V13.01,2013-04-10 12:49:00,
2013-04-10 08:54:00,48.6,46.4,29.92,WNW,292,0.0,1.0,92,0.00,,,0.06,VWS V13.01,2013-04-10 12:54:00,
2013-04-10 08:59:00,48.9,46.4,29.92,WNW,292,0.0,1.0,91,0.00,,,0.06,VWS V13.01,2013-04-10 12:59:00,
2013-04-10 09:05:00,49.0,46.8,29.92,WNW,292,0.0,1.0,92,0.00,,,0.06,VWS V13.01,2013-04-10 13:05:00,
2013-04-10 09:10:00,49.3,47.1,29.92,WNW,292,0.0,1.0,92,0.00,,,0.06,VWS V13.01,2013-04-10 13:10:00,
2013-04-10 09:15:00,49.6,47.4,29.92,WNW,292,0.0,1.0,92,0.00,,,0.06,VWS V13.01,2013-04-10 13:15:00,
2013-04-10 09:20:00,49.9,47.7,29.92,WNW,292,0.0,3.0,92,0.00,,,0.06,VWS V13.01,2013-04-10 13:20:00,
2013-04-10 09:25:00,50.3,47.8,29.92,WNW,292,0.0,3.0,91,0.00,,,0.06,VWS V13.01,2013-04-10 13:25:00,
2013-04-10 09:30:00,50.5,47.4,29.92,WNW,292,1.0,3.0,89,0.00,,,0.06,VWS V13.01,2013-04-10 13:30:00,
2013-04-10 09:35:00,50.5,47.1,29.93,NE,46,0.0,4.0,88,0.00,,,0.06,VWS V13.01,2013-04-10 13:35:00,
2013-04-10 09:40:00,50.5,47.4,29.93,NW,309,0.0,4.0,89,0.00,,,0.06,VWS V13.01,2013-04-10 13:40:00,
2013-04-10 09:45:00,50.7,47.3,29.93,NNE,17,2.0,4.0,88,0.00,,OVC050,0.06,VWS V13.01,2013-04-10 13:45:00,
2013-04-10 09:50:00,50.8,47.4,29.93,NE,46,0.0,4.0,88,0.00,,OVC050,0.06,VWS V13.01,2013-04-10 13:50:00,
2013-04-10 09:55:00,51.2,47.5,29.93,NE,56,1.0,5.0,87,0.00,,OVC050,0.06,VWS V13.01,2013-04-10 13:55:00,
2013-04-10 10:00:00,51.4,46.7,29.93,NE,54,0.0,5.0,84,0.00,,OVC050,0.06,VWS V13.01,2013-04-10 14:00:00,
2013-04-10 10:05:00,51.7,47.7,29.93,North,9,0.0,1.0,86,0.00,,OVC050,0.06,VWS V13.01,2013-04-10 14:05:00,
2013-04-10 10:10:00,51.8,47.4,29.93,NNE,28,0.0,3.0,85,0.00,,OVC050,0.06,VWS V13.01,2013-04-10 14:10:00,
2013-04-10 10:15:00,52.0,48.0,29.93,NNE,28,2.0,3.0,86,0.00,,OVC050,0.06,VWS V13.01,2013-04-10 14:15:00,
2013-04-10 10:20:00,52.0,47.6,29.93,NE,35,2.0,5.0,85,0.00,,OVC050,0.06,VWS V13.01,2013-04-10 14:20:00,
2013-04-10 10:26:00,51.9,47.2,29.93,NNW,329,1.0,5.0,84,0.00,,OVC050,0.06,VWS V13.01,2013-04-10 14:26:00,
2013-04-10 10:31:00,52.1,47.7,29.92,NNW,329,0.0,5.0,85,0.00,,OVC050,0.06,VWS V13.01,2013-04-10 14:31:00,
2013-04-10 10:36:00,52.4,48.0,29.92,NNW,329,0.0,1.0,85,0.00,,OVC050,0.06,VWS V13.01,2013-04-10 14:36:00,
2013-04-10 10:41:00,52.7,48.0,29.92,NNW,332,2.0,3.0,84,0.00,,OVC050,0.06,VWS V13.01,2013-04-10 14:41:00,
2013-04-10 10:46:00,53.1,47.8,29.92,NW,323,0.0,3.0,82,0.00,,,0.06,VWS V13.01,2013-04-10 14:46:00,
2013-04-10 10:51:00,53.4,47.7,29.93,NNE,30,0.0,3.0,81,0.00,,,0.06,VWS V13.01,2013-04-10 14:51:00,
2013-04-10 10:56:00,53.6,47.9,29.94,NNE,30,0.0,3.0,81,0.00,,,0.06,VWS V13.01,2013-04-10 14:56:00,
2013-04-10 11:01:00,53.6,47.3,29.94,NNE,30,0.0,0.0,79,0.00,,,0.06,VWS V13.01,2013-04-10 15:01:00,
2013-04-10 11:07:00,53.5,46.8,29.94,NNE,31,0.0,3.0,78,0.00,,,0.06,VWS V13.01,2013-04-10 15:07:00,
2013-04-10 11:12:00,53.3,47.3,29.94,NNE,31,0.0,3.0,80,0.00,,,0.06,VWS V13.01,2013-04-10 15:12:00,
2013-04-10 11:17:00,53.3,47.0,29.94,NNE,31,0.0,3.0,79,0.00,,,0.06,VWS V13.01,2013-04-10 15:17:00,
2013-04-10 11:22:00,53.4,46.7,29.95,North,5,0.0,3.0,78,0.00,,,0.06,VWS V13.01,2013-04-10 15:22:00,
2013-04-10 11:27:00,53.4,47.4,29.95,NNW,332,0.0,3.0,80,0.00,,,0.06,VWS V13.01,2013-04-10 15:27:00,
2013-04-10 11:32:00,53.5,47.5,29.95,NNW,333,0.0,0.0,80,0.00,,,0.06,VWS V13.01,2013-04-10 15:32:00,
2013-04-10 11:37:00,53.6,47.3,29.94,NNW,333,0.0,1.0,79,0.00,,,0.06,VWS V13.01,2013-04-10 15:37:00,
2013-04-10 11:42:00,53.8,47.5,29.94,NNW,333,0.0,1.0,79,0.00,,,0.06,VWS V13.01,2013-04-10 15:42:00,
2013-04-10 11:47:00,54.0,47.6,29.94,NNW,333,0.0,1.0,79,0.00,,OVC016,0.06,VWS V13.01,2013-04-10 15:47:00,
2013-04-10 11:52:00,54.2,47.5,29.94,NNW,333,0.0,2.0,78,0.00,,OVC016,0.06,VWS V13.01,2013-04-10 15:52:00,
2013-04-10 11:57:00,54.5,47.8,29.94,NW,312,0.0,3.0,78,0.00,,OVC016,0.06,VWS V13.01,2013-04-10 15:57:00,
2013-04-10 12:03:00,54.8,47.7,29.94,NW,311,0.0,2.0,77,0.00,,OVC016,0.06,VWS V13.01,2013-04-10 16:03:00,
2013-04-10 12:08:00,55.0,47.6,29.93,NW,311,0.0,2.0,76,0.00,,OVC016,0.06,VWS V13.01,2013-04-10 16:08:00,
2013-04-10 12:13:00,55.4,47.6,29.93,NW,311,1.0,2.0,75,0.00,,OVC016,0.06,VWS V13.01,2013-04-10 16:13:00,
2013-04-10 12:18:00,56.0,47.8,29.92,NW,311,0.0,2.0,74,0.00,,OVC016,0.06,VWS V13.01,2013-04-10 16:18:00,
2013-04-10 12:23:00,56.6,47.7,29.92,SSW,195,0.0,3.0,72,0.00,,OVC016,0.06,VWS V13.01,2013-04-10 16:23:00,
2013-04-10 12:28:00,56.8,48.2,29.92,SSW,193,2.0,4.0,73,0.00,,OVC016,0.06,VWS V13.01,2013-04-10 16:28:00,
2013-04-10 12:33:00,56.9,48.0,29.93,SSE,166,0.0,1.0,72,0.00,,OVC016,0.06,VWS V13.01,2013-04-10 16:33:00,
2013-04-10 12:38:00,57.1,48.5,29.93,SW,231,0.0,2.0,73,0.00,,OVC016,0.06,VWS V13.01,2013-04-10 16:38:00,
2013-04-10 12:43:00,57.2,48.3,29.93,WSW,256,2.0,3.0,72,0.00,,OVC016,0.06,VWS V13.01,2013-04-10 16:43:00,
2013-04-10 12:48:00,57.5,48.9,29.93,West,259,3.0,4.0,73,0.00,,CLR,0.06,VWS V13.01,2013-04-10 16:48:00,
2013-04-10 12:53:00,57.8,48.5,29.93,NW,321,0.0,4.0,71,0.00,,CLR,0.06,VWS V13.01,2013-04-10 16:53:00,
2013-04-10 12:58:00,58.4,48.7,29.93,SW,222,0.0,4.0,70,0.00,,CLR,0.06,VWS V13.01,2013-04-10 16:58:00,
2013-04-10 13:03:00,58.9,48.8,29.93,WSW,247,0.0,1.0,69,0.00,,OVC042,0.06,VWS V13.01,2013-04-10 17:03:00,
2013-04-10 13:08:00,59.2,48.7,29.92,SW,235,2.0,3.0,68,0.00,,OVC042,0.06,VWS V13.01,2013-04-10 17:08:00,
2013-04-10 13:13:00,59.4,48.8,29.92,SW,226,0.0,3.0,68,0.00,,OVC042,0.06,VWS V13.01,2013-04-10 17:13:00,
2013-04-10 13:18:00,59.4,48.5,29.92,SW,226,2.0,3.0,67,0.00,,OVC042,0.06,VWS V13.01,2013-04-10 17:18:00,
2013-04-10 13:24:00,59.6,48.6,29.92,NW,309,2.0,6.0,67,0.00,,OVC042,0.06,VWS V13.01,2013-04-10 17:24:00,
2013-04-10 13:29:00,60.2,49.2,29.92,West,279,3.0,6.0,67,0.00,,OVC042,0.06,VWS V13.01,2013-04-10 17:29:00,
2013-04-10 13:34:00,60.8,50.2,29.92,WSW,254,0.0,5.0,68,0.00,,OVC042,0.06,VWS V13.01,2013-04-10 17:34:00,
2013-04-10 13:39:00,61.5,48.4,29.92,West,270,1.0,5.0,62,0.00,,OVC042,0.06,VWS V13.01,2013-04-10 17:39:00,
2013-04-10 13:44:00,61.9,49.6,29.92,West,262,3.0,5.0,64,0.00,,OVC042,0.06,VWS V13.01,2013-04-10 17:44:00,
2013-04-10 13:49:00,62.3,49.6,29.92,NW,315,0.0,5.0,63,0.00,,OVC049,0.06,VWS V13.01,2013-04-10 17:49:00,
2013-04-10 13:54:00,62.9,50.5,29.92,NW,313,0.0,5.0,64,0.00,,OVC049,0.06,VWS V13.01,2013-04-10 17:54:00,
2013-04-10 13:59:00,63.5,50.3,29.92,West,262,2.0,5.0,62,0.00,,OVC049,0.06,VWS V13.01,2013-04-10 17:59:00,
2013-04-10 14:04:00,63.4,49.3,29.91,SW,233,0.0,4.0,60,0.00,,OVC049,0.06,VWS V13.01,2013-04-10 18:04:00,
2013-04-10 14:09:00,63.4,49.7,29.91,SW,236,1.0,5.0,61,0.00,,OVC049,0.06,VWS V13.01,2013-04-10 18:09:00,
2013-04-10 14:14:00,63.7,49.6,29.92,NNW,339,1.0,5.0,60,0.00,,OVC049,0.06,VWS V13.01,2013-04-10 18:14:00,
2013-04-10 14:19:00,64.4,50.7,29.92,NW,310,4.0,5.0,61,0.00,,CLR,0.06,VWS V13.01,2013-04-10 18:19:00,
2013-04-10 14:24:00,65.0,51.2,29.92,WNW,296,0.0,5.0,61,0.00,,CLR,0.06,VWS V13.01,2013-04-10 18:24:00,
2013-04-10 14:29:00,65.0,48.9,29.92,NW,310,0.0,5.0,56,0.00,,CLR,0.06,VWS V13.01,2013-04-10 18:29:00,
2013-04-10 14:34:00,64.3,49.2,29.92,NW,310,0.0,2.0,58,0.00,,OVC049,0.06,VWS V13.01,2013-04-10 18:34:00,
2013-04-10 14:40:00,63.9,48.8,29.91,NW,312,0.0,3.0,58,0.00,,OVC049,0.06,VWS V13.01,2013-04-10 18:40:00,
2013-04-10 14:45:00,63.8,48.8,29.90,NW,310,0.0,6.0,58,0.00,,OVC049,0.06,VWS V13.01,2013-04-10 18:45:00,
2013-04-10 14:50:00,64.0,48.5,29.90,NW,319,0.0,6.0,57,0.00,,BKN048,0.06,VWS V13.01,2013-04-10 18:50:00,
2013-04-10 14:55:00,64.1,48.6,29.90,NW,319,0.0,6.0,57,0.00,,BKN048,0.06,VWS V13.01,2013-04-10 18:55:00,
2013-04-10 15:00:00,64.2,49.1,29.89,NNW,330,4.0,6.0,58,0.00,,BKN048,0.06,VWS V13.01,2013-04-10 19:00:00,
2013-04-10 15:05:00,64.3,49.2,29.89,NW,319,0.0,1.0,58,0.00,,BKN048,0.06,VWS V13.01,2013-04-10 19:05:00,
2013-04-10 15:10:00,64.2,49.1,29.89,NW,319,0.0,1.0,58,0.00,,BKN048,0.06,VWS V13.01,2013-04-10 19:10:00,
2013-04-10 15:15:00,63.8,49.2,29.91,NW,319,0.0,3.0,59,0.00,,BKN048,0.06,VWS V13.01,2013-04-10 19:15:00,
2013-04-10 15:20:00,63.4,48.4,29.90,NW,319,0.0,3.0,58,0.00,,BKN048,0.06,VWS V13.01,2013-04-10 19:20:00,
2013-04-10 15:25:00,63.1,48.1,29.89,NW,319,0.0,3.0,58,0.00,,BKN048,0.06,VWS V13.01,2013-04-10 19:25:00,
2013-04-10 15:30:00,62.8,48.3,29.87,NW,319,0.0,3.0,59,0.00,,BKN048,0.06,VWS V13.01,2013-04-10 19:30:00,
2013-04-10 15:37:00,63.1,48.6,29.86,NW,319,0.0,1.0,59,0.00,,BKN048,0.06,VWS V13.01,2013-04-10 19:37:00,
2013-04-10 15:42:00,63.7,48.7,29.85,NW,319,0.0,2.0,58,0.00,,BKN048,0.06,VWS V13.01,2013-04-10 19:42:00,
2013-04-10 15:47:00,64.5,49.0,29.85,North,355,0.0,3.0,57,0.00,,OVC100,0.06,VWS V13.01,2013-04-10 19:47:00,
2013-04-10 15:52:00,65.1,50.0,29.83,ENE,58,1.0,3.0,58,0.00,,OVC100,0.06,VWS V13.01,2013-04-10 19:52:00,
2013-04-10 15:57:00,65.6,49.0,29.83,NE,48,0.0,3.0,55,0.00,,OVC100,0.06,VWS V13.01,2013-04-10 19:57:00,
2013-04-10 16:02:00,65.8,49.2,29.83,ESE,113,1.0,2.0,55,0.00,,OVC100,0.06,VWS V13.01,2013-04-10 20:02:00,
2013-04-10 16:07:00,65.7,49.1,29.83,South,171,0.0,3.0,55,0.00,,OVC100,0.06,VWS V13.01,2013-04-10 20:07:00,
2013-04-10 16:12:00,66.1,49.5,29.83,South,171,0.0,3.0,55,0.00,,OVC100,0.06,VWS V13.01,2013-04-10 20:12:00,
2013-04-10 16:17:00,66.6,49.5,29.83,SW,232,0.0,3.0,54,0.00,,OVC100,0.06,VWS V13.01,2013-04-10 20:17:00,
2013-04-10 16:22:00,66.9,50.2,29.83,NNE,19,0.0,4.0,55,0.00,,OVC100,0.06,VWS V13.01,2013-04-10 20:22:00,
2013-04-10 16:28:00,66.5,49.4,29.83,SSW,209,0.0,4.0,54,0.00,,OVC100,0.06,VWS V13.01,2013-04-10 20:28:00,
2013-04-10 16:33:00,65.7,48.1,29.84,South,177,1.0,1.0,53,0.00,,OVC100,0.06,VWS V13.01,2013-04-10 20:33:00,
2013-04-10 16:38:00,64.9,47.9,29.84,South,177,0.0,1.0,54,0.00,,OVC100,0.06,VWS V13.01,2013-04-10 20:38:00,
2013-04-10 16:43:00,63.8,48.3,29.85,South,177,1.0,3.0,57,0.00,,OVC100,0.06,VWS V13.01,2013-04-10 20:43:00,
2013-04-10 16:48:00,62.8,47.8,29.85,South,177,0.0,3.0,58,0.00,,BKN100,0.06,VWS V13.01,2013-04-10 20:48:00,
2013-04-10 16:53:00,62.0,48.0,29.85,South,177,0.0,3.0,60,0.00,,BKN100,0.06,VWS V13.01,2013-04-10 20:53:00,
2013-04-10 16:58:00,61.3,47.8,29.85,SSE,148,1.0,3.0,61,0.00,,BKN100,0.06,VWS V13.01,2013-04-10 20:58:00,
2013-04-10 17:03:00,60.7,47.2,29.86,ESE,106,0.0,2.0,61,0.00,,BKN100,0.06,VWS V13.01,2013-04-10 21:03:00,
2013-04-10 17:08:00,60.2,47.6,29.86,ESE,106,0.0,2.0,63,0.00,,BKN100,0.06,VWS V13.01,2013-04-10 21:08:00,
2013-04-10 17:13:00,59.7,46.7,29.86,ESE,106,0.0,2.0,62,0.00,,BKN100,0.06,VWS V13.01,2013-04-10 21:13:00,
2013-04-10 17:18:00,59.4,47.2,29.86,ESE,106,0.0,2.0,64,0.00,,BKN100,0.06,VWS V13.01,2013-04-10 21:18:00,
2013-04-10 17:23:00,59.1,47.0,29.86,ESE,106,0.0,2.0,64,0.00,,BKN100,0.06,VWS V13.01,2013-04-10 21:23:00,
2013-04-10 17:29:00,58.9,47.2,29.86,ESE,106,1.0,2.0,65,0.00,,BKN100,0.06,VWS V13.01,2013-04-10 21:29:00,
2013-04-10 17:34:00,58.7,47.0,29.86,ESE,106,0.0,2.0,65,0.00,,BKN100,0.06,VWS V13.01,2013-04-10 21:34:00,
2013-04-10 17:39:00,58.6,47.3,29.86,WSW,250,0.0,2.0,66,0.00,,BKN100,0.06,VWS V13.01,2013-04-10 21:39:00,
2013-04-10 17:44:00,58.4,47.1,29.86,South,181,0.0,2.0,66,0.00,,BKN100,0.06,VWS V13.01,2013-04-10 21:44:00,
2013-04-10 17:49:00,58.1,46.8,29.86,South,181,0.0,2.0,66,0.00,,OVC042,0.06,VWS V13.01,2013-04-10 21:49:00,
2013-04-10 17:54:00,57.9,46.6,29.85,South,181,0.0,2.0,66,0.00,,OVC042,0.06,VWS V13.01,2013-04-10 21:54:00,
2013-04-10 17:59:00,57.6,47.1,29.85,SSE,161,0.0,2.0,68,0.00,,OVC042,0.06,VWS V13.01,2013-04-10 21:59:00,
2013-04-10 18:04:00,57.3,46.5,29.85,SSE,150,1.0,4.0,67,0.00,,OVC042,0.06,VWS V13.01,2013-04-10 22:04:00,
2013-04-10 18:09:00,56.9,46.5,29.84,SSE,151,0.0,4.0,68,0.00,,OVC042,0.06,VWS V13.01,2013-04-10 22:09:00,
2013-04-10 18:14:00,56.5,45.7,29.83,SE,125,2.0,4.0,67,0.00,,OVC042,0.06,VWS V13.01,2013-04-10 22:14:00,
2013-04-10 18:19:00,56.2,45.4,29.85,NNW,333,0.0,4.0,67,0.00,,OVC042,0.06,VWS V13.01,2013-04-10 22:19:00,
2013-04-10 18:24:00,55.7,44.9,29.85,NE,49,0.0,4.0,67,0.00,,OVC042,0.06,VWS V13.01,2013-04-10 22:24:00,
2013-04-10 18:29:00,55.1,44.3,29.84,NE,49,0.0,4.0,67,0.00,,OVC042,0.06,VWS V13.01,2013-04-10 22:29:00,
2013-04-10 18:34:00,54.6,44.3,29.84,NE,49,0.0,2.0,68,0.00,,OVC042,0.06,VWS V13.01,2013-04-10 22:34:00,
2013-04-10 18:39:00,54.1,44.2,29.84,NE,49,2.0,3.0,69,0.00,,OVC042,0.06,VWS V13.01,2013-04-10 22:39:00,
2013-04-10 18:44:00,53.6,43.7,29.84,ENE,57,0.0,3.0,69,0.00,,OVC042,0.06,VWS V13.01,2013-04-10 22:44:00,
2013-04-10 18:50:00,53.2,44.0,29.84,ENE,57,0.0,3.0,71,0.00,,BKN042,0.06,VWS V13.01,2013-04-10 22:50:00,
2013-04-10 18:55:00,53.0,44.6,29.85,ENE,57,0.0,3.0,73,0.00,,BKN042,0.06,VWS V13.01,2013-04-10 22:55:00,
2013-04-10 19:00:00,52.7,45.4,29.84,ENE,57,1.0,3.0,76,0.00,,BKN042,0.06,VWS V13.01,2013-04-10 23:00:00,
2013-04-10 19:05:00,52.2,45.6,29.84,ENE,57,0.0,2.0,78,0.01,,BKN042,0.07,VWS V13.01,2013-04-10 23:05:00,
2013-04-10 19:10:00,51.8,45.8,29.86,ENE,57,0.0,2.0,80,0.01,,BKN042,0.07,VWS V13.01,2013-04-10 23:10:00,
2013-04-10 19:15:00,51.5,46.2,29.85,ENE,57,0.0,2.0,82,0.02,,BKN042,0.08,VWS V13.01,2013-04-10 23:15:00,
2013-04-10 19:20:00,51.0,46.7,29.85,ENE,57,0.0,2.0,85,0.02,,BKN042,0.08,VWS V13.01,2013-04-10 23:20:00,
2013-04-10 19:25:00,50.7,46.7,29.85,ENE,57,0.0,2.0,86,0.02,,BKN042,0.08,VWS V13.01,2013-04-10 23:25:00,
2013-04-10 19:30:00,50.4,46.7,29.86,ENE,57,0.0,2.0,87,0.02,,BKN042,0.08,VWS V13.01,2013-04-10 23:30:00,
2013-04-10 19:35:00,50.2,46.8,29.86,ENE,57,0.0,2.0,88,0.02,,BKN042,0.08,VWS V13.01,2013-04-10 23:35:00,
2013-04-10 19:40:00,50.0,46.9,29.85,ENE,57,0.0,2.0,89,0.02,,BKN042,0.08,VWS V13.01,2013-04-10 23:40:00,
2013-04-10 19:45:00,49.8,46.7,29.85,ENE,57,0.0,2.0,89,0.03,,-RA,0.09,VWS V13.01,2013-04-10 23:45:00,
2013-04-10 19:50:00,49.5,46.7,29.85,ENE,57,0.0,2.0,90,0.04,,-RA,0.10,VWS V13.01,2013-04-10 23:50:00,
2013-04-10 19:55:00,49.3,46.8,29.86,ENE,57,0.0,2.0,91,0.05,,-RA,0.11,VWS V13.01,2013-04-10 23:55:00,
2013-04-10 20:00:00,49.1,46.6,29.85,ENE,57,0.0,2.0,91,0.05,,-RA,0.11,VWS V13.01,2013-04-11 00:00:00,
2013-04-10 20:05:00,49.0,46.8,29.85,ENE,57,0.0,1.0,92,0.06,,-RA,0.12,VWS V13.01,2013-04-11 00:05:00,
2013-04-10 20:11:00,48.9,47.0,29.86,ENE,57,0.0,1.0,93,0.07,,-RA,0.13,VWS V13.01,2013-04-11 00:11:00,
2013-04-10 20:16:00,48.8,46.9,29.86,ENE,57,0.0,1.0,93,0.07,,-RA,0.13,VWS V13.01,2013-04-11 00:16:00,
2013-04-10 20:21:00,48.7,46.8,29.87,ENE,57,0.0,1.0,93,0.08,,-RA,0.14,VWS V13.01,2013-04-11 00:21:00,
2013-04-10 20:26:00,48.7,47.0,29.90,ENE,57,0.0,1.0,94,0.09,,-RA,0.15,VWS V13.01,2013-04-11 00:26:00,
2013-04-10 20:31:00,48.7,47.0,29.89,ENE,57,0.0,1.0,94,0.11,,-RA,0.17,VWS V13.01,2013-04-11 00:31:00,
2013-04-10 20:36:00,48.6,47.0,29.88,ENE,57,0.0,0.0,94,0.12,,-RA,0.20,VWS V13.01,2013-04-11 00:36:00,
2013-04-10 20:41:00,48.5,46.9,29.89,ENE,57,0.0,0.0,94,0.12,,-RA,0.20,VWS V13.01,2013-04-11 00:41:00,
2013-04-10 20:46:00,48.5,47.1,29.88,ENE,57,0.0,0.0,95,0.12,,-RA,0.20,VWS V13.01,2013-04-11 00:46:00,
2013-04-10 20:51:00,48.5,47.1,29.86,ENE,57,0.0,0.0,95,0.12,,-RA,0.20,VWS V13.01,2013-04-11 00:51:00,
2013-04-10 20:56:00,48.4,47.0,29.86,ENE,57,0.0,0.0,95,0.12,,-RA,0.20,VWS V13.01,2013-04-11 00:56:00,
2013-04-10 21:01:00,48.4,47.0,29.87,ENE,57,0.0,0.0,95,0.12,,-RA,0.20,VWS V13.01,2013-04-11 01:01:00,
2013-04-10 21:06:00,48.4,47.0,29.86,ENE,57,0.0,0.0,95,0.09,,-RA,0.20,VWS V13.01,2013-04-11 01:06:00,
2013-04-10 21:12:00,48.4,47.0,29.86,ENE,57,0.0,1.0,95,0.09,,-RA,0.20,VWS V13.01,2013-04-11 01:12:00,
2013-04-10 21:17:00,48.4,47.3,29.86,ENE,57,0.0,1.0,96,0.09,,-RA,0.20,VWS V13.01,2013-04-11 01:17:00,
2013-04-10 21:22:00,48.4,47.3,29.87,ENE,57,0.0,1.0,96,0.09,,-RA,0.20,VWS V13.01,2013-04-11 01:22:00,
2013-04-10 21:27:00,48.5,47.4,29.87,ENE,57,0.0,1.0,96,0.09,,-RA,0.20,VWS V13.01,2013-04-11 01:27:00,
2013-04-10 21:33:00,48.5,47.4,29.87,ENE,57,0.0,0.0,96,0.03,,-RA,0.20,VWS V13.01,2013-04-11 01:33:00,
2013-04-10 21:38:00,48.6,47.5,29.87,ENE,57,0.0,0.0,96,0.03,,-RA,0.20,VWS V13.01,2013-04-11 01:38:00,
2013-04-10 21:43:00,48.6,47.5,29.86,ENE,57,0.0,0.0,96,0.03,,-RA,0.20,VWS V13.01,2013-04-11 01:43:00,
2013-04-10 21:48:00,48.6,47.5,29.86,ENE,57,0.0,0.0,96,0.03,,-RA,0.20,VWS V13.01,2013-04-11 01:48:00,
2013-04-10 21:59:00,48.6,47.5,29.85,ENE,57,0.0,0.0,96,0.00,,,0.20,VWS V13.01,2013-04-11 01:59:00,
2013-04-10 22:04:00,48.6,47.5,29.86,ENE,57,0.0,0.0,96,0.00,,OVC050,0.20,VWS V13.01,2013-04-11 02:04:00,
2013-04-10 22:09:00,48.6,47.5,29.85,ENE,57,0.0,0.0,96,0.00,,OVC050,0.20,VWS V13.01,2013-04-11 02:09:00,
2013-04-10 22:14:00,48.7,47.6,29.84,ENE,57,0.0,0.0,96,0.00,,OVC050,0.20,VWS V13.01,2013-04-11 02:14:00,
2013-04-10 22:19:00,48.7,47.6,29.84,ENE,57,0.0,0.0,96,0.00,,OVC050,0.20,VWS V13.01,2013-04-11 02:19:00,
2013-04-10 22:24:00,48.7,47.9,29.84,ENE,57,0.0,1.0,97,0.00,,OVC050,0.20,VWS V13.01,2013-04-11 02:24:00,
2013-04-10 22:29:00,48.8,48.0,29.84,ENE,57,0.0,1.0,97,0.00,,OVC050,0.20,VWS V13.01,2013-04-11 02:29:00,
2013-04-10 22:34:00,48.8,48.0,29.84,ENE,57,0.0,0.0,97,0.00,,OVC050,0.20,VWS V13.01,2013-04-11 02:34:00,
2013-04-10 22:39:00,48.8,48.0,29.84,ENE,57,0.0,0.0,97,0.00,,OVC050,0.20,VWS V13.01,2013-04-11 02:39:00,
2013-04-10 22:44:00,48.9,48.1,29.84,ENE,57,0.0,0.0,97,0.00,,OVC050,0.20,VWS V13.01,2013-04-11 02:44:00,
2013-04-10 22:49:00,48.9,48.1,29.84,ENE,57,0.0,0.0,97,0.00,,OVC035,0.20,VWS V13.01,2013-04-11 02:49:00,
2013-04-10 22:54:00,48.9,48.1,29.85,ENE,57,0.0,0.0,97,0.00,,OVC035,0.20,VWS V13.01,2013-04-11 02:54:00,
2013-04-10 22:59:00,48.9,48.1,29.84,ENE,57,0.0,0.0,97,0.00,,OVC035,0.20,VWS V13.01,2013-04-11 02:59:00,
2013-04-10 23:04:00,48.9,48.1,29.85,ENE,57,0.0,0.0,97,0.00,,OVC035,0.20,VWS V13.01,2013-04-11 03:04:00,
2013-04-10 23:10:00,48.9,48.1,29.84,ENE,57,0.0,0.0,97,0.00,,OVC035,0.20,VWS V13.01,2013-04-11 03:10:00,
2013-04-10 23:15:00,48.9,48.1,29.84,ENE,57,1.0,1.0,97,0.00,,OVC035,0.20,VWS V13.01,2013-04-11 03:15:00,
2013-04-10 23:20:00,48.8,48.0,29.84,ENE,57,0.0,1.0,97,0.00,,OVC035,0.20,VWS V13.01,2013-04-11 03:20:00,
2013-04-10 23:25:00,48.8,48.0,29.85,ENE,57,0.0,1.0,97,0.00,,OVC035,0.20,VWS V13.01,2013-04-11 03:25:00,
2013-04-10 23:30:00,48.8,48.0,29.86,ENE,57,0.0,1.0,97,0.00,,OVC035,0.20,VWS V13.01,2013-04-11 03:30:00,
2013-04-10 23:35:00,48.8,48.0,29.86,ENE,57,0.0,0.0,97,0.00,,OVC035,0.20,VWS V13.01,2013-04-11 03:35:00,
2013-04-10 23:40:00,48.8,48.0,29.87,ENE,57,0.0,0.0,97,0.00,,OVC035,0.20,VWS V13.01,2013-04-11 03:40:00,
2013-04-10 23:45:00,48.9,48.1,29.87,ENE,57,0.0,0.0,97,0.00,,OVC033,0.20,VWS V13.01,2013-04-11 03:45:00,
2013-04-10 23:50:00,48.9,48.1,29.87,ENE,57,0.0,0.0,97,0.00,,OVC033,0.21,VWS V13.01,2013-04-11 03:50:00,
2013-04-10 23:55:00,48.9,48.1,29.86,ENE,57,0.0,0.0,97,0.01,,OVC033,0.21,VWS V13.01,2013-04-11 03:55:00,